Time;durP1;ratioP1;P1;durP2;ratioP2;P2;SDS_P1;SDS_P2;PMS_P1;PMS_P2;Temp;Humidity;BMP_temperature;BMP_pressure;BME280_temperature;BME280_humidity;BME280_pressure;Samples;Min_cycle;Max_cycle;Signal;HPM_P1;HPM_P2
2023/12/11 00:00:37;;;;;;;7.28;2.03;;;6.50;99.90;;;;;;2074830;28;20025;-73
2023/12/11 00:01:37;;;;;;;7.60;2.22;;;6.60;99.90;;;;;;2066395;28;20050;-72
2023/12/11 00:02:38;;;;;;;13.07;2.50;;;6.60;99.90;;;;;;2070333;28;20441;-72
2023/12/11 00:03:39;;;;;;;8.02;2.10;;;6.60;99.90;;;;;;2070395;28;20108;-72
2023/12/11 00:04:39;;;;;;;13.57;2.55;;;6.50;99.90;;;;;;2074141;28;20041;-71
2023/12/11 00:05:40;;;;;;;8.68;2.10;;;6.50;99.90;;;;;;2077618;28;20092;-72
2023/12/11 00:06:40;;;;;;;8.38;2.10;;;6.50;99.90;;;;;;2069039;28;20052;-71
2023/12/11 00:07:41;;;;;;;8.38;2.50;;;6.50;99.90;;;;;;2066966;28;20026;-73
2023/12/11 00:08:41;;;;;;;8.73;2.30;;;6.50;99.90;;;;;;2069962;28;20101;-72
2023/12/11 00:09:42;;;;;;;8.45;2.45;;;6.50;99.90;;;;;;2073165;28;20309;-72
2023/12/11 00:10:43;;;;;;;6.47;2.17;;;6.50;99.90;;;;;;2058459;28;20445;-72
2023/12/11 00:11:44;;;;;;;12.13;2.28;;;6.50;99.90;;;;;;2068969;28;20018;-72
2023/12/11 00:12:44;;;;;;;8.15;2.20;;;6.50;99.90;;;;;;2072827;28;20029;-72
2023/12/11 00:13:45;;;;;;;10.25;2.63;;;6.60;99.90;;;;;;2058967;28;20026;-72
2023/12/11 00:14:45;;;;;;;7.32;2.20;;;6.60;99.90;;;;;;2068722;28;20063;-72
2023/12/11 00:15:46;;;;;;;7.63;2.35;;;6.60;99.90;;;;;;2069773;28;20025;-72
2023/12/11 00:16:47;;;;;;;7.10;2.00;;;6.60;99.90;;;;;;2066832;28;20038;-72
2023/12/11 00:17:47;;;;;;;8.80;2.20;;;6.60;99.90;;;;;;2068646;28;20038;-71
2023/12/11 00:18:48;;;;;;;5.97;2.08;;;6.50;99.90;;;;;;2069728;28;20537;-73
2023/12/11 00:19:49;;;;;;;10.27;2.30;;;6.50;99.90;;;;;;2067156;28;20108;-73
2023/12/11 00:20:50;;;;;;;9.68;2.47;;;6.50;99.90;;;;;;2068128;28;20442;-72
2023/12/11 00:21:50;;;;;;;11.48;2.85;;;6.60;99.90;;;;;;2066510;28;20034;-71
2023/12/11 00:22:51;;;;;;;10.40;2.72;;;6.60;99.90;;;;;;2069799;28;20026;-72
2023/12/11 00:23:52;;;;;;;8.00;2.20;;;6.60;99.90;;;;;;2071773;28;20122;-72
2023/12/11 00:24:53;;;;;;;8.68;2.28;;;6.50;99.90;;;;;;2057848;28;20052;-73
2023/12/11 00:25:54;;;;;;;11.18;2.47;;;6.50;99.90;;;;;;2059076;28;20350;-73
2023/12/11 00:26:54;;;;;;;10.75;2.40;;;6.50;99.90;;;;;;2056290;28;20038;-75
2023/12/11 00:27:55;;;;;;;7.32;2.38;;;6.50;99.90;;;;;;2060214;28;20037;-73
2023/12/11 00:28:56;;;;;;;8.75;2.63;;;6.50;99.90;;;;;;2059412;28;20037;-72
2023/12/11 00:29:58;;;;;;;9.95;2.50;;;6.60;99.90;;;;;;2058540;28;20355;-72
2023/12/11 00:31:01;;;;;;;11.15;2.60;;;6.50;99.90;;;;;;2065139;28;20083;-73
2023/12/11 00:32:01;;;;;;;11.50;2.50;;;6.60;99.90;;;;;;2072051;28;20048;-72
2023/12/11 00:33:02;;;;;;;8.70;2.30;;;6.50;99.90;;;;;;2073674;28;20098;-73
2023/12/11 00:34:02;;;;;;;9.35;2.58;;;6.50;99.90;;;;;;2069914;28;20226;-73
2023/12/11 00:35:03;;;;;;;9.05;3.08;;;6.60;99.90;;;;;;2078191;28;20167;-73
2023/12/11 00:36:04;;;;;;;8.48;2.60;;;6.60;99.90;;;;;;2068002;28;20038;-73
2023/12/11 00:37:05;;;;;;;7.60;2.58;;;6.60;99.90;;;;;;2069579;28;20038;-74
2023/12/11 00:38:05;;;;;;;9.25;2.50;;;6.50;99.90;;;;;;2071652;28;20029;-73
2023/12/11 00:39:06;;;;;;;10.23;3.13;;;6.60;99.90;;;;;;2076644;28;20164;-73
2023/12/11 00:40:08;;;;;;;8.05;2.65;;;6.60;99.90;;;;;;2071938;28;20032;-72
2023/12/11 00:41:08;;;;;;;8.57;2.55;;;6.60;99.90;;;;;;2067374;28;20209;-73
2023/12/11 00:42:09;;;;;;;10.60;3.00;;;6.60;99.90;;;;;;2064570;28;20128;-73
2023/12/11 00:43:09;;;;;;;9.63;3.03;;;6.50;99.90;;;;;;2066697;28;20506;-73
2023/12/11 00:44:10;;;;;;;10.98;3.55;;;6.60;99.90;;;;;;2071778;28;20037;-73
2023/12/11 00:45:13;;;;;;;11.23;3.85;;;6.50;99.90;;;;;;2072128;28;20041;-72
2023/12/11 00:46:14;;;;;;;12.45;4.00;;;6.60;99.90;;;;;;2071502;28;20092;-73
2023/12/11 00:47:15;;;;;;;13.43;3.90;;;6.60;99.90;;;;;;2062383;28;20432;-73
2023/12/11 00:48:15;;;;;;;13.95;4.55;;;6.50;99.90;;;;;;2071366;28;20467;-73
2023/12/11 00:49:16;;;;;;;16.05;4.70;;;6.50;99.90;;;;;;2076198;28;20026;-72
2023/12/11 00:50:16;;;;;;;13.05;4.57;;;6.40;99.90;;;;;;2070906;28;20045;-72
2023/12/11 00:51:19;;;;;;;14.20;4.40;;;6.30;99.90;;;;;;2071769;28;20021;-74
2023/12/11 00:52:19;;;;;;;14.00;4.28;;;6.30;99.90;;;;;;2069019;28;20022;-73
2023/12/11 00:53:20;;;;;;;12.02;4.32;;;6.30;99.90;;;;;;2077939;28;20040;-72
2023/12/11 00:54:20;;;;;;;12.60;4.13;;;6.30;99.90;;;;;;2079289;28;20544;-72
2023/12/11 00:55:21;;;;;;;10.13;3.65;;;6.30;99.90;;;;;;2069520;28;20113;-73
2023/12/11 00:56:21;;;;;;;13.50;4.32;;;6.30;99.90;;;;;;2077973;28;20480;-73
2023/12/11 00:57:22;;;;;;;11.93;3.78;;;6.30;99.90;;;;;;2071359;28;20041;-73
2023/12/11 00:58:22;;;;;;;10.98;3.90;;;6.30;99.90;;;;;;2066678;28;20037;-73
2023/12/11 00:59:23;;;;;;;11.93;3.75;;;6.30;99.90;;;;;;2077177;28;20391;-73
2023/12/11 01:00:23;;;;;;;12.95;3.78;;;6.40;99.90;;;;;;2072218;28;20040;-73
2023/12/11 01:01:24;;;;;;;9.10;3.67;;;6.30;99.90;;;;;;2078761;28;20032;-73
2023/12/11 01:02:24;;;;;;;10.40;3.80;;;6.30;99.90;;;;;;2077191;28;20037;-73
2023/12/11 01:03:25;;;;;;;9.52;3.60;;;6.30;99.90;;;;;;2071843;28;20021;-73
2023/12/11 01:04:26;;;;;;;8.52;3.38;;;6.40;99.90;;;;;;2077431;28;20037;-73
2023/12/11 01:05:27;;;;;;;10.68;3.50;;;6.40;99.90;;;;;;2068868;28;20052;-73
2023/12/11 01:06:27;;;;;;;10.80;4.18;;;6.40;99.90;;;;;;2071076;28;20032;-73
2023/12/11 01:07:28;;;;;;;10.68;4.00;;;6.40;99.90;;;;;;2068680;28;20036;-72
2023/12/11 01:08:30;;;;;;;11.15;3.97;;;6.40;99.90;;;;;;2069343;28;21046;-72
2023/12/11 01:09:30;;;;;;;13.93;4.28;;;6.40;99.90;;;;;;2071858;28;20477;-71
2023/12/11 01:10:31;;;;;;;12.55;4.10;;;6.40;99.90;;;;;;2070295;28;20013;-74
2023/12/11 01:11:31;;;;;;;9.68;4.07;;;6.40;99.90;;;;;;2076341;28;20025;-72
2023/12/11 01:12:32;;;;;;;12.07;3.97;;;6.40;99.90;;;;;;2079266;28;20103;-74
2023/12/11 01:13:32;;;;;;;11.75;3.80;;;6.40;99.90;;;;;;2070979;28;20052;-71
2023/12/11 01:14:33;;;;;;;9.48;4.00;;;6.40;99.90;;;;;;2072157;28;20022;-71
2023/12/11 01:15:33;;;;;;;13.18;4.25;;;6.50;99.90;;;;;;2074071;28;20059;-72
2023/12/11 01:16:34;;;;;;;9.95;3.90;;;6.40;99.90;;;;;;2075574;28;20021;-72
2023/12/11 01:17:34;;;;;;;11.57;3.83;;;6.50;99.90;;;;;;2072097;28;20331;-73
2023/12/11 01:18:35;;;;;;;12.75;3.92;;;6.50;99.90;;;;;;2078512;28;20053;-73
2023/12/11 01:19:35;;;;;;;10.73;3.85;;;6.50;99.90;;;;;;2071125;28;20029;-72
2023/12/11 01:20:36;;;;;;;7.43;2.90;;;6.50;99.90;;;;;;2075586;28;20092;-72
2023/12/11 01:21:37;;;;;;;8.43;3.00;;;6.60;99.90;;;;;;2071509;28;20720;-72
2023/12/11 01:22:37;;;;;;;6.65;2.40;;;6.70;99.90;;;;;;2070146;28;20454;-72
2023/12/11 01:23:38;;;;;;;6.85;2.50;;;6.80;99.90;;;;;;2068017;28;20492;-73
2023/12/11 01:24:39;;;;;;;5.28;2.20;;;6.90;99.90;;;;;;2071550;28;20076;-72
2023/12/11 01:25:40;;;;;;;6.97;1.88;;;6.90;99.90;;;;;;2071041;28;20406;-72
2023/12/11 01:26:40;;;;;;;6.18;1.98;;;7.10;99.90;;;;;;2062883;28;20496;-72
2023/12/11 01:27:41;;;;;;;5.07;2.03;;;7.10;99.90;;;;;;2077383;28;20191;-72
2023/12/11 01:28:41;;;;;;;7.28;1.80;;;7.10;99.90;;;;;;2078889;28;20090;-72
2023/12/11 01:29:42;;;;;;;5.72;1.88;;;7.20;99.90;;;;;;2067806;28;20048;-72
2023/12/11 01:30:42;;;;;;;8.13;1.80;;;7.30;99.90;;;;;;2070342;28;20453;-72
2023/12/11 01:31:43;;;;;;;4.75;1.52;;;7.30;99.90;;;;;;2062287;28;20085;-72
2023/12/11 01:32:44;;;;;;;7.22;2.10;;;7.40;99.90;;;;;;2061532;28;20409;-72
2023/12/11 01:33:44;;;;;;;4.47;2.00;;;7.40;99.90;;;;;;2067884;28;20030;-72
2023/12/11 01:34:45;;;;;;;3.97;1.70;;;7.50;99.90;;;;;;2070862;28;20029;-71
2023/12/11 01:35:45;;;;;;;6.20;1.92;;;7.50;99.90;;;;;;2067517;28;20196;-72
2023/12/11 01:36:46;;;;;;;4.82;1.65;;;7.50;99.90;;;;;;2068339;28;20550;-71
2023/12/11 01:37:46;;;;;;;5.43;1.55;;;7.60;99.90;;;;;;2070988;28;20034;-72
2023/12/11 01:38:47;;;;;;;6.80;1.83;;;7.60;99.90;;;;;;2071392;28;20021;-72
2023/12/11 01:39:48;;;;;;;5.93;1.63;;;7.60;99.90;;;;;;2068204;28;20036;-72
2023/12/11 01:40:48;;;;;;;4.88;1.60;;;7.60;99.90;;;;;;2070577;28;20062;-72
2023/12/11 01:41:49;;;;;;;6.82;1.90;;;7.70;99.90;;;;;;2073708;28;20026;-72
2023/12/11 01:42:49;;;;;;;6.68;1.60;;;7.70;99.90;;;;;;2071870;28;20110;-72
2023/12/11 01:43:52;;;;;;;5.28;1.70;;;7.70;99.90;;;;;;2069360;28;20029;-72
2023/12/11 01:44:53;;;;;;;4.57;1.60;;;7.70;99.90;;;;;;2072000;28;20049;-72
2023/12/11 01:46:09;;;;;;;4.22;1.60;;;7.70;99.90;;;;;;2076200;28;20022;-72
2023/12/11 01:47:10;;;;;;;6.68;1.75;;;7.70;99.90;;;;;;2067710;28;20489;-72
2023/12/11 01:48:11;;;;;;;5.38;1.67;;;7.70;99.90;;;;;;2071326;28;20030;-72
2023/12/11 01:49:13;;;;;;;6.82;1.98;;;7.70;99.90;;;;;;2070255;28;20065;-71
2023/12/11 01:50:14;;;;;;;5.05;1.67;;;7.80;99.90;;;;;;2058594;28;20531;-72
2023/12/11 01:51:17;;;;;;;4.55;1.60;;;7.90;99.90;;;;;;2070383;28;20034;-71
2023/12/11 01:52:18;;;;;;;5.30;1.70;;;7.90;99.90;;;;;;2066123;28;20038;-72
2023/12/11 01:53:18;;;;;;;5.57;1.80;;;7.90;99.90;;;;;;2071330;28;20022;-72
2023/12/11 01:54:19;;;;;;;5.32;1.70;;;7.90;99.90;;;;;;2075751;28;20589;-72
2023/12/11 01:55:20;;;;;;;7.63;1.85;;;7.90;99.90;;;;;;2061684;28;20512;-72
2023/12/11 01:56:21;;;;;;;4.80;1.83;;;7.90;99.90;;;;;;2058577;28;20048;-72
2023/12/11 01:57:22;;;;;;;6.20;1.67;;;8.00;99.90;;;;;;2067924;28;20542;-72
2023/12/11 01:58:24;;;;;;;3.78;1.45;;;8.00;99.90;;;;;;2069130;28;20037;-71
2023/12/11 01:59:24;;;;;;;5.07;1.75;;;7.90;99.90;;;;;;2071518;28;20037;-71
2023/12/11 02:00:25;;;;;;;5.50;1.83;;;7.90;99.90;;;;;;2068082;28;20030;-73
2023/12/11 02:01:27;;;;;;;7.55;1.67;;;7.90;99.90;;;;;;2067411;28;20034;-72
2023/12/11 02:02:29;;;;;;;4.90;1.60;;;8.00;99.90;;;;;;2071216;28;20037;-71
2023/12/11 02:03:30;;;;;;;5.10;1.60;;;8.00;99.90;;;;;;2069716;28;20429;-72
2023/12/11 02:04:31;;;;;;;4.72;1.70;;;8.00;99.90;;;;;;2080456;28;20895;-72
2023/12/11 02:05:32;;;;;;;4.25;1.50;;;8.00;99.90;;;;;;2078523;28;20407;-72
2023/12/11 02:06:32;;;;;;;5.75;1.63;;;8.00;99.90;;;;;;2074547;28;20033;-72
2023/12/11 02:07:33;;;;;;;4.05;1.40;;;8.00;99.90;;;;;;2071904;28;20086;-72
2023/12/11 02:08:33;;;;;;;3.72;1.45;;;8.10;99.90;;;;;;2067650;28;20151;-71
2023/12/11 02:09:34;;;;;;;5.50;1.75;;;8.10;99.90;;;;;;2064612;28;20030;-72
2023/12/11 02:10:35;;;;;;;5.55;1.98;;;8.10;99.90;;;;;;2066867;28;20033;-72
2023/12/11 02:11:36;;;;;;;5.20;1.58;;;8.10;99.90;;;;;;2067092;28;20033;-72
2023/12/11 02:12:38;;;;;;;6.80;1.80;;;8.10;99.90;;;;;;2069532;28;20079;-72
2023/12/11 02:13:40;;;;;;;6.32;1.92;;;8.10;99.90;;;;;;2067391;28;20115;-72
2023/12/11 02:14:40;;;;;;;6.60;1.75;;;8.10;99.90;;;;;;2067209;28;20052;-74
2023/12/11 02:15:41;;;;;;;5.45;1.70;;;8.00;99.90;;;;;;2071254;28;20025;-72
2023/12/11 02:16:42;;;;;;;6.82;1.73;;;8.10;99.90;;;;;;2070568;28;20037;-72
2023/12/11 02:17:42;;;;;;;8.13;1.90;;;8.00;99.90;;;;;;2070813;28;20029;-72
2023/12/11 02:18:43;;;;;;;5.03;1.75;;;8.00;99.90;;;;;;2066764;28;20048;-72
2023/12/11 02:19:44;;;;;;;5.07;1.80;;;8.00;99.90;;;;;;2063920;28;20041;-72
2023/12/11 02:20:45;;;;;;;6.38;1.73;;;8.00;99.90;;;;;;2070239;28;20084;-71
2023/12/11 02:21:45;;;;;;;5.65;1.77;;;8.00;99.90;;;;;;2070151;28;20106;-72
2023/12/11 02:22:46;;;;;;;7.15;1.75;;;8.00;99.90;;;;;;2063740;28;20026;-72
2023/12/11 02:23:56;;;;;;;5.47;1.50;;;8.00;99.90;;;;;;2066585;28;20338;-72
2023/12/11 02:25:02;;;;;;;6.38;1.80;;;8.10;99.90;;;;;;2062251;28;20503;-73
2023/12/11 02:26:11;;;;;;;3.70;1.50;;;8.20;99.90;;;;;;2069199;28;20470;-73
2023/12/11 02:27:11;;;;;;;3.80;1.67;;;8.30;99.90;;;;;;2067106;28;20044;-71
2023/12/11 02:28:12;;;;;;;4.03;1.70;;;8.30;99.90;;;;;;2067124;28;20549;-71
2023/12/11 02:29:13;;;;;;;6.53;1.77;;;8.30;99.90;;;;;;2070423;28;20099;-71
2023/12/11 02:30:13;;;;;;;5.53;1.70;;;8.40;99.90;;;;;;2078751;28;20045;-73
2023/12/11 02:31:14;;;;;;;5.22;1.73;;;8.40;99.90;;;;;;2066480;28;20026;-71
2023/12/11 02:32:18;;;;;;;5.50;1.85;;;8.40;99.90;;;;;;2064851;28;20094;-71
2023/12/11 02:33:18;;;;;;;4.53;1.50;;;8.40;99.90;;;;;;2071135;28;20017;-71
2023/12/11 02:34:19;;;;;;;5.32;1.75;;;8.40;99.90;;;;;;2071020;28;20022;-73
2023/12/11 02:35:19;;;;;;;3.97;1.48;;;8.50;99.90;;;;;;2067898;28;20279;-71
2023/12/11 02:36:20;;;;;;;3.33;1.60;;;8.50;99.90;;;;;;2070289;28;20535;-71
2023/12/11 02:37:20;;;;;;;4.45;1.70;;;8.50;99.90;;;;;;2070908;28;20047;-72
2023/12/11 02:38:21;;;;;;;4.20;1.65;;;8.50;99.90;;;;;;2074406;28;20029;-72
2023/12/11 02:39:21;;;;;;;5.07;1.48;;;8.50;99.90;;;;;;2074663;28;20053;-72
2023/12/11 02:40:22;;;;;;;6.05;1.77;;;8.50;99.90;;;;;;2066990;28;20449;-72
2023/12/11 02:41:22;;;;;;;5.70;1.70;;;8.50;99.90;;;;;;2068504;28;20038;-72
2023/12/11 02:42:23;;;;;;;4.15;1.50;;;8.40;99.90;;;;;;2069615;28;20037;-72
2023/12/11 02:43:24;;;;;;;6.50;2.15;;;8.50;99.90;;;;;;2068929;28;20400;-73
2023/12/11 02:44:24;;;;;;;6.97;1.88;;;8.50;99.90;;;;;;2068693;28;20030;-72
2023/12/11 02:45:25;;;;;;;3.78;1.65;;;8.50;99.90;;;;;;2070678;28;20116;-72
2023/12/11 02:46:25;;;;;;;5.43;1.60;;;8.50;99.90;;;;;;2074232;28;20044;-72
2023/12/11 02:47:26;;;;;;;4.05;1.65;;;8.50;99.90;;;;;;2062325;28;20098;-71
2023/12/11 02:48:26;;;;;;;5.43;1.80;;;8.50;99.90;;;;;;2070032;28;20288;-72
2023/12/11 02:49:27;;;;;;;3.25;1.40;;;8.50;99.90;;;;;;2068414;28;20025;-72
2023/12/11 02:50:31;;;;;;;5.40;1.80;;;8.50;99.90;;;;;;2069063;28;20030;-72
2023/12/11 02:51:32;;;;;;;5.15;1.67;;;8.50;99.90;;;;;;2069839;28;20029;-73
2023/12/11 02:52:32;;;;;;;5.00;1.65;;;8.50;99.90;;;;;;2068523;28;20535;-73
2023/12/11 02:53:33;;;;;;;6.22;1.90;;;8.50;99.90;;;;;;2068006;28;20110;-72
2023/12/11 02:54:33;;;;;;;6.60;1.85;;;8.60;99.90;;;;;;2070828;28;20496;-73
2023/12/11 02:55:34;;;;;;;5.88;1.75;;;8.60;99.90;;;;;;2066647;28;20061;-72
2023/12/11 02:56:38;;;;;;;4.90;1.50;;;8.50;99.90;;;;;;2062859;28;20026;-72
2023/12/11 02:57:39;;;;;;;6.30;1.75;;;8.40;99.90;;;;;;2066453;28;20032;-72
2023/12/11 02:58:40;;;;;;;4.72;1.80;;;8.40;99.90;;;;;;2066602;28;20026;-71
2023/12/11 02:59:41;;;;;;;4.10;1.60;;;8.40;99.90;;;;;;2069710;28;20033;-72
2023/12/11 03:00:41;;;;;;;4.32;1.65;;;8.40;99.90;;;;;;2069964;28;20415;-71
2023/12/11 03:01:42;;;;;;;6.10;1.70;;;8.40;99.90;;;;;;2078342;28;20029;-73
2023/12/11 03:02:42;;;;;;;6.75;1.90;;;8.40;99.90;;;;;;2077883;28;20036;-72
2023/12/11 03:03:43;;;;;;;4.60;2.03;;;8.40;99.90;;;;;;2074411;28;20025;-72
2023/12/11 03:04:43;;;;;;;6.65;1.73;;;8.40;99.90;;;;;;2078022;28;20124;-72
2023/12/11 03:05:44;;;;;;;7.05;1.70;;;8.40;99.90;;;;;;2070182;28;20028;-72
2023/12/11 03:06:45;;;;;;;5.15;1.85;;;8.40;99.90;;;;;;2065935;28;20137;-72
2023/12/11 03:07:45;;;;;;;5.80;1.73;;;8.40;99.90;;;;;;2070564;28;20437;-72
2023/12/11 03:08:46;;;;;;;5.20;1.65;;;8.40;99.90;;;;;;2069275;28;20037;-72
2023/12/11 03:09:46;;;;;;;6.20;1.83;;;8.40;99.90;;;;;;2066281;28;20132;-72
2023/12/11 03:10:47;;;;;;;6.28;1.80;;;8.40;99.90;;;;;;2066069;28;20093;-72
2023/12/11 03:11:47;;;;;;;4.60;1.80;;;8.40;99.90;;;;;;2066947;28;20049;-72
2023/12/11 03:12:48;;;;;;;6.35;1.90;;;8.30;99.90;;;;;;2067048;28;20060;-72
2023/12/11 03:13:48;;;;;;;5.90;1.90;;;8.30;99.90;;;;;;2077997;28;20660;-72
2023/12/11 03:14:49;;;;;;;3.75;1.75;;;8.30;99.90;;;;;;2078093;28;20462;-72
2023/12/11 03:15:49;;;;;;;5.60;1.90;;;8.20;99.90;;;;;;2073982;28;20033;-71
2023/12/11 03:16:50;;;;;;;4.80;1.80;;;8.20;99.90;;;;;;2069529;28;20022;-71
2023/12/11 03:17:50;;;;;;;6.80;1.95;;;8.20;99.90;;;;;;2068069;28;20488;-72
2023/12/11 03:18:51;;;;;;;8.70;2.00;;;8.20;99.90;;;;;;2066845;28;20433;-72
2023/12/11 03:19:52;;;;;;;6.50;2.00;;;8.20;99.90;;;;;;2070054;28;20515;-71
2023/12/11 03:20:53;;;;;;;5.80;1.80;;;8.20;99.90;;;;;;2068925;28;20570;-72
2023/12/11 03:21:55;;;;;;;7.82;1.95;;;8.30;99.90;;;;;;2066193;28;20054;-72
2023/12/11 03:22:56;;;;;;;6.53;1.95;;;8.30;99.90;;;;;;2067736;28;20538;-72
2023/12/11 03:23:56;;;;;;;5.95;1.70;;;8.20;99.90;;;;;;2069373;28;20124;-72
2023/12/11 03:24:57;;;;;;;6.40;1.80;;;8.20;99.90;;;;;;2070735;28;20030;-72
2023/12/11 03:25:57;;;;;;;6.25;1.80;;;8.30;99.90;;;;;;2066809;28;20033;-72
2023/12/11 03:26:58;;;;;;;6.40;1.83;;;8.30;99.90;;;;;;2066175;28;20054;-72
2023/12/11 03:27:58;;;;;;;6.38;2.17;;;8.30;99.90;;;;;;2065773;28;20101;-72
2023/12/11 03:28:59;;;;;;;5.72;2.00;;;8.30;99.90;;;;;;2073985;28;20143;-72
2023/12/11 03:29:59;;;;;;;5.35;1.73;;;8.30;99.90;;;;;;2069980;28;20038;-72
2023/12/11 03:31:00;;;;;;;5.55;1.90;;;8.30;99.90;;;;;;2073627;28;20522;-72
2023/12/11 03:32:01;;;;;;;8.70;2.20;;;8.20;99.90;;;;;;2071768;28;20033;-72
2023/12/11 03:33:01;;;;;;;5.97;1.70;;;8.20;99.90;;;;;;2076121;28;20037;-72
2023/12/11 03:34:02;;;;;;;7.28;2.03;;;8.20;99.90;;;;;;2071717;28;20045;-72
2023/12/11 03:35:03;;;;;;;5.32;1.90;;;8.40;99.90;;;;;;2059909;28;20030;-71
2023/12/11 03:36:04;;;;;;;6.72;1.80;;;8.30;99.90;;;;;;2059406;28;20039;-71
2023/12/11 03:37:05;;;;;;;7.40;2.00;;;8.30;99.90;;;;;;2058405;28;20038;-72
2023/12/11 03:38:05;;;;;;;5.70;1.85;;;8.30;99.90;;;;;;2058422;28;20125;-72
2023/12/11 03:39:07;;;;;;;5.55;1.98;;;8.20;99.90;;;;;;2070099;28;20030;-71
2023/12/11 03:40:08;;;;;;;4.85;1.90;;;8.10;99.90;;;;;;2072670;28;20098;-72
2023/12/11 03:41:09;;;;;;;7.50;1.80;;;8.10;99.90;;;;;;2067623;28;20543;-72
2023/12/11 03:42:09;;;;;;;7.90;2.17;;;8.10;99.90;;;;;;2070993;28;20033;-73
2023/12/11 03:43:10;;;;;;;4.50;1.83;;;8.10;99.90;;;;;;2070158;28;20029;-73
2023/12/11 03:44:11;;;;;;;5.53;2.10;;;8.10;99.90;;;;;;2067589;28;20057;-73
2023/12/11 03:45:12;;;;;;;7.93;2.38;;;8.10;99.90;;;;;;2067153;28;20030;-73
2023/12/11 03:46:12;;;;;;;4.80;1.70;;;8.10;99.90;;;;;;2069627;28;20041;-73
2023/12/11 03:47:13;;;;;;;7.47;2.22;;;8.00;99.90;;;;;;2063771;28;20026;-73
2023/12/11 03:48:13;;;;;;;6.80;2.05;;;8.10;99.90;;;;;;2066545;28;20109;-73
2023/12/11 03:49:16;;;;;;;8.60;2.00;;;8.10;99.90;;;;;;2070030;28;20108;-73
2023/12/11 03:50:17;;;;;;;4.75;1.70;;;8.10;99.90;;;;;;2062830;28;20083;-73
2023/12/11 03:51:17;;;;;;;4.93;2.00;;;8.10;99.90;;;;;;2069854;28;20495;-73
2023/12/11 03:52:18;;;;;;;6.28;1.90;;;8.20;99.90;;;;;;2066076;28;20018;-72
2023/12/11 03:53:18;;;;;;;5.80;1.90;;;8.20;99.90;;;;;;2066813;28;20034;-73
2023/12/11 03:54:19;;;;;;;4.72;1.77;;;8.10;99.90;;;;;;2070523;28;20095;-72
2023/12/11 03:55:20;;;;;;;8.50;2.25;;;8.10;99.90;;;;;;2070198;28;20037;-73
2023/12/11 03:56:20;;;;;;;7.07;2.20;;;8.10;99.90;;;;;;2071239;28;20036;-72
2023/12/11 03:57:21;;;;;;;5.63;2.13;;;8.10;99.90;;;;;;2077576;28;20479;-73
2023/12/11 03:58:21;;;;;;;6.70;1.92;;;8.20;99.90;;;;;;2066460;28;20080;-72
2023/12/11 03:59:22;;;;;;;7.60;2.00;;;8.20;99.90;;;;;;2066613;28;20121;-73
2023/12/11 04:00:23;;;;;;;6.38;1.85;;;8.20;99.90;;;;;;2067232;28;20369;-73
2023/12/11 04:01:23;;;;;;;5.32;2.17;;;8.10;99.90;;;;;;2073855;28;20040;-73
2023/12/11 04:02:24;;;;;;;5.60;2.15;;;8.10;99.90;;;;;;2067525;28;20029;-72
2023/12/11 04:03:24;;;;;;;7.47;1.90;;;8.00;99.90;;;;;;2069842;28;20026;-72
2023/12/11 04:04:25;;;;;;;4.57;2.10;;;7.90;99.90;;;;;;2069105;28;20121;-73
2023/12/11 04:05:25;;;;;;;9.30;2.15;;;7.90;99.90;;;;;;2067282;28;20026;-73
2023/12/11 04:06:26;;;;;;;7.63;1.95;;;7.90;99.90;;;;;;2068830;28;20026;-73
2023/12/11 04:07:28;;;;;;;6.47;2.13;;;8.00;99.90;;;;;;2069912;28;20065;-72
2023/12/11 04:08:28;;;;;;;7.30;1.90;;;8.10;99.90;;;;;;2067960;28;20440;-72
2023/12/11 04:09:29;;;;;;;5.57;1.98;;;8.10;99.90;;;;;;2069156;28;20057;-71
2023/12/11 04:10:30;;;;;;;8.48;2.08;;;8.10;99.90;;;;;;2070703;28;20021;-72
2023/12/11 04:11:32;;;;;;;7.78;2.10;;;8.10;99.90;;;;;;2068005;28;20038;-71
2023/12/11 04:12:33;;;;;;;7.30;1.90;;;8.10;99.90;;;;;;2067876;28;20107;-72
2023/12/11 04:13:33;;;;;;;6.88;2.30;;;8.10;99.90;;;;;;2069902;28;20483;-72
2023/12/11 04:14:34;;;;;;;6.63;2.53;;;8.20;99.90;;;;;;2068131;28;20057;-72
2023/12/11 04:15:34;;;;;;;5.57;2.25;;;8.20;99.90;;;;;;2070122;28;20454;-72
2023/12/11 04:16:35;;;;;;;6.97;1.98;;;8.20;99.90;;;;;;2069180;28;20022;-72
2023/12/11 04:17:36;;;;;;;7.47;2.10;;;8.20;99.90;;;;;;2075509;28;20361;-72
2023/12/11 04:18:37;;;;;;;5.82;2.05;;;8.20;99.90;;;;;;2075482;28;20041;-76
2023/12/11 04:19:38;;;;;;;7.57;2.22;;;8.10;99.90;;;;;;2065598;28;20053;-74
2023/12/11 04:20:38;;;;;;;6.20;2.08;;;8.20;99.90;;;;;;2069026;28;20479;-72
2023/12/11 04:21:39;;;;;;;11.05;2.10;;;8.20;99.90;;;;;;2072173;28;20029;-79
2023/12/11 04:22:39;;;;;;;6.47;1.85;;;8.20;99.90;;;;;;2067998;28;20038;-71
2023/12/11 04:23:40;;;;;;;5.57;1.80;;;8.20;99.90;;;;;;2068069;28;20285;-71
2023/12/11 04:24:40;;;;;;;6.15;2.20;;;8.20;99.90;;;;;;2072021;28;20092;-70
2023/12/11 04:25:41;;;;;;;7.18;2.20;;;8.30;99.90;;;;;;2071212;28;20095;-71
2023/12/11 04:26:41;;;;;;;6.88;2.10;;;8.30;99.90;;;;;;2069001;28;20037;-70
2023/12/11 04:27:42;;;;;;;6.93;1.80;;;8.30;99.90;;;;;;2071894;28;20507;-70
2023/12/11 04:28:42;;;;;;;6.07;2.00;;;8.30;99.90;;;;;;2070430;28;20025;-71
2023/12/11 04:29:43;;;;;;;5.85;1.73;;;8.40;99.90;;;;;;2068088;28;20084;-70
2023/12/11 04:30:43;;;;;;;8.40;2.13;;;8.40;99.90;;;;;;2064366;28;20037;-70
2023/12/11 04:31:44;;;;;;;6.30;1.83;;;8.40;99.90;;;;;;2068790;28;20029;-73
2023/12/11 04:32:45;;;;;;;8.23;2.13;;;8.40;99.90;;;;;;2064441;28;20036;-71
2023/12/11 04:33:45;;;;;;;5.43;2.13;;;8.40;99.90;;;;;;2068533;28;20034;-72
2023/12/11 04:34:46;;;;;;;6.18;1.73;;;8.50;99.90;;;;;;2071445;28;20087;-71
2023/12/11 04:35:46;;;;;;;6.90;1.90;;;8.50;99.90;;;;;;2068495;28;20042;-71
2023/12/11 04:36:47;;;;;;;6.50;2.03;;;8.40;99.90;;;;;;2067930;28;20037;-70
2023/12/11 04:37:48;;;;;;;7.50;2.10;;;8.40;99.90;;;;;;2069090;28;20289;-71
2023/12/11 04:38:49;;;;;;;4.30;1.80;;;8.40;99.90;;;;;;2067812;28;20026;-73
2023/12/11 04:39:49;;;;;;;4.68;1.77;;;8.40;99.90;;;;;;2079505;28;20033;-70
2023/12/11 04:40:50;;;;;;;7.97;2.03;;;8.40;99.90;;;;;;2080092;28;20040;-80
2023/12/11 04:41:50;;;;;;;6.03;1.80;;;8.40;99.90;;;;;;2072145;28;20081;-82
2023/12/11 04:42:51;;;;;;;6.93;2.10;;;8.40;99.90;;;;;;2063347;28;20324;-80
2023/12/11 04:43:51;;;;;;;5.32;2.13;;;8.40;99.90;;;;;;2062978;28;20488;-82
2023/12/11 04:44:52;;;;;;;5.68;1.77;;;8.40;99.90;;;;;;2076216;28;20053;-81
2023/12/11 04:45:52;;;;;;;5.53;1.92;;;8.40;99.90;;;;;;2067457;28;20290;-81
2023/12/11 04:46:53;;;;;;;4.25;1.80;;;8.40;99.90;;;;;;2068702;28;20030;-83
2023/12/11 04:47:53;;;;;;;8.55;2.38;;;8.40;99.90;;;;;;2070840;28;20025;-81
2023/12/11 04:48:54;;;;;;;5.63;2.10;;;8.50;99.90;;;;;;2059526;28;20086;-82
2023/12/11 04:49:54;;;;;;;7.10;2.05;;;8.50;99.90;;;;;;2067407;28;20038;-81
2023/12/11 04:50:55;;;;;;;7.20;2.13;;;8.40;99.90;;;;;;2079617;28;20032;-82
2023/12/11 04:51:55;;;;;;;6.75;2.00;;;8.50;99.90;;;;;;2071386;28;20133;-81
2023/12/11 04:52:56;;;;;;;7.10;2.05;;;8.50;99.90;;;;;;2070584;28;20033;-81
2023/12/11 04:53:58;;;;;;;5.43;1.95;;;8.60;99.90;;;;;;2079241;28;20025;-82
2023/12/11 04:54:59;;;;;;;7.68;2.20;;;8.50;99.90;;;;;;2068732;28;20026;-80
2023/12/11 04:56:05;;;;;;;4.15;1.55;;;8.50;99.90;;;;;;2071894;28;20497;-83
2023/12/11 04:57:05;;;;;;;6.25;1.90;;;8.60;99.90;;;;;;2075551;28;20052;-83
2023/12/11 04:58:06;;;;;;;4.82;1.92;;;8.60;99.90;;;;;;2075060;28;20324;-80
2023/12/11 04:59:06;;;;;;;7.82;2.08;;;8.60;99.90;;;;;;2075320;28;20025;-81
2023/12/11 05:00:08;;;;;;;6.65;1.80;;;8.70;99.90;;;;;;2069987;28;20121;-80
2023/12/11 05:01:08;;;;;;;6.82;2.00;;;8.70;99.90;;;;;;2069658;28;20036;-80
2023/12/11 05:02:09;;;;;;;5.45;1.70;;;8.70;99.90;;;;;;2076852;28;20812;-84
2023/12/11 05:03:09;;;;;;;6.38;2.00;;;8.80;99.90;;;;;;2064427;28;20025;-84
2023/12/11 05:04:10;;;;;;;7.72;2.30;;;8.80;99.90;;;;;;2058986;28;20042;-83
2023/12/11 05:05:10;;;;;;;7.22;2.63;;;8.80;99.90;;;;;;2071862;28;20121;-81
2023/12/11 05:06:11;;;;;;;6.82;2.17;;;8.90;99.90;;;;;;2070545;28;20021;-81
2023/12/11 05:07:11;;;;;;;7.30;2.05;;;8.80;99.90;;;;;;2074122;28;20073;-82
2023/12/11 05:08:12;;;;;;;7.00;1.88;;;8.80;99.90;;;;;;2072780;28;20042;-82
2023/12/11 05:09:13;;;;;;;6.90;2.20;;;8.80;99.90;;;;;;2072302;28;20511;-83
2023/12/11 05:10:13;;;;;;;8.55;2.10;;;8.80;99.90;;;;;;2067823;28;20385;-81
2023/12/11 05:11:14;;;;;;;7.43;1.80;;;8.70;99.90;;;;;;2068992;28;20076;-82
2023/12/11 05:12:14;;;;;;;7.35;1.98;;;8.80;99.90;;;;;;2069652;28;20179;-82
2023/12/11 05:13:15;;;;;;;6.43;2.08;;;8.80;99.90;;;;;;2071843;28;20381;-83
2023/12/11 05:14:15;;;;;;;9.02;3.13;;;8.80;99.90;;;;;;2064822;28;20109;-82
2023/12/11 05:15:16;;;;;;;5.10;1.83;;;8.80;99.90;;;;;;2071657;28;20041;-84
2023/12/11 05:16:17;;;;;;;9.27;2.03;;;8.80;99.90;;;;;;2069099;28;20119;-84
2023/12/11 05:17:18;;;;;;;6.78;1.90;;;8.90;99.90;;;;;;2064664;28;20038;-83
2023/12/11 05:18:18;;;;;;;6.80;2.00;;;8.80;99.90;;;;;;2072021;28;20388;-84
2023/12/11 05:19:19;;;;;;;7.10;2.15;;;8.80;99.90;;;;;;2072518;28;20052;-84
2023/12/11 05:20:19;;;;;;;10.63;2.53;;;8.80;99.90;;;;;;2076310;28;20152;-82